createdAt,value
2019-05-10T00:00:19.610Z,0.70
2019-05-10T00:03:06.589Z,0.70
2019-05-10T00:05:53.830Z,0.57
2019-05-10T00:08:40.718Z,0.50
2019-05-10T00:11:35.125Z,0.60
2019-05-10T00:14:33.528Z,0.60
2019-05-10T00:17:09.839Z,0.60
2019-05-10T00:19:39.102Z,0.70
2019-05-10T00:22:08.275Z,0.50
2019-05-10T00:24:38.194Z,0.50
2019-05-10T00:27:10.493Z,0.47
2019-05-10T00:29:39.658Z,0.53
2019-05-10T00:32:09.167Z,0.70
2019-05-10T00:34:38.737Z,0.47
2019-05-10T00:37:07.686Z,0.60
2019-05-10T00:39:37.110Z,0.57
2019-05-10T00:42:09.145Z,0.40
2019-05-10T00:44:38.443Z,0.40
2019-05-10T00:47:07.645Z,0.50
2019-05-10T00:49:39.568Z,0.50
2019-05-10T00:52:08.582Z,0.40
2019-05-10T00:54:41.055Z,0.40
2019-05-10T00:57:10.065Z,0.40
2019-05-10T00:59:40.202Z,0.50
2019-05-10T01:02:09.149Z,0.60
2019-05-10T01:04:38.665Z,0.70
2019-05-10T01:07:07.583Z,0.50
2019-05-10T01:09:36.853Z,0.50
2019-05-10T01:12:06.325Z,0.50
2019-05-10T01:14:35.627Z,0.40
2019-05-10T01:17:08.006Z,0.57
2019-05-10T01:19:37.147Z,0.50
2019-05-10T01:22:06.387Z,0.40
2019-05-10T01:24:35.850Z,0.60
2019-05-10T01:27:04.841Z,0.70
2019-05-10T01:29:34.137Z,0.60
2019-05-10T01:32:03.849Z,0.60
2019-05-10T01:34:33.217Z,0.50
2019-05-10T01:37:02.435Z,0.40
2019-05-10T01:39:31.835Z,0.60
2019-05-10T01:42:01.172Z,0.70
2019-05-10T01:44:30.205Z,0.50
2019-05-10T01:46:59.727Z,0.80
2019-05-10T01:49:28.884Z,0.80
2019-05-10T01:51:58.045Z,0.70
2019-05-10T01:54:27.069Z,0.60
2019-05-10T01:56:56.743Z,0.60
2019-05-10T01:59:26.295Z,0.70
2019-05-10T02:01:55.414Z,0.60
2019-05-10T02:04:24.845Z,0.50
2019-05-10T02:06:53.928Z,0.73
2019-05-10T02:09:23.136Z,0.60
2019-05-10T02:11:52.223Z,0.70
2019-05-10T02:14:21.629Z,0.70
2019-05-10T02:16:50.767Z,0.70
2019-05-10T02:19:20.101Z,0.60
2019-05-10T02:21:49.166Z,0.70
2019-05-10T02:24:18.477Z,0.60
2019-05-10T02:26:47.822Z,0.70
2019-05-10T02:29:16.887Z,0.50
2019-05-10T02:31:46.243Z,0.70
2019-05-10T02:34:15.367Z,0.80
2019-05-10T02:36:44.144Z,0.73
2019-05-10T02:39:13.100Z,0.90
2019-05-10T02:41:42.309Z,0.80
2019-05-10T02:44:11.429Z,0.70
2019-05-10T02:46:40.422Z,0.80
2019-05-10T02:49:09.213Z,0.83
2019-05-10T02:51:38.151Z,0.83
2019-05-10T02:54:07.246Z,0.90
2019-05-10T02:56:36.745Z,1.00
2019-05-10T02:59:06.582Z,0.90
2019-05-10T03:01:37.195Z,0.90
2019-05-10T03:04:06.137Z,0.90
2019-05-10T03:06:35.938Z,0.80
2019-05-10T03:09:06.987Z,0.90
2019-05-10T03:11:42.582Z,0.77
2019-05-10T03:14:11.731Z,1.10
2019-05-10T03:16:42.108Z,1.00
2019-05-10T03:19:11.405Z,1.00
2019-05-10T03:21:42.437Z,1.00
2019-05-10T03:24:11.531Z,0.90
2019-05-10T03:26:50.893Z,1.20
2019-05-10T03:29:12.142Z,1.00
2019-05-10T03:31:41.189Z,0.87
2019-05-10T03:34:10.482Z,0.87
2019-05-10T03:36:39.774Z,0.97
2019-05-10T03:39:08.621Z,0.93
2019-05-10T03:41:37.850Z,1.10
2019-05-10T03:44:06.665Z,0.90
2019-05-10T03:46:36.331Z,0.90
2019-05-10T03:49:05.167Z,0.90
2019-05-10T03:51:34.254Z,0.90
2019-05-10T03:54:03.516Z,0.83
2019-05-10T03:56:32.339Z,0.90
2019-05-10T03:59:01.290Z,0.90
2019-05-10T04:01:30.347Z,0.90
2019-05-10T04:03:59.115Z,0.77
2019-05-10T04:06:28.074Z,1.03
2019-05-10T04:08:56.949Z,1.20
2019-05-10T04:11:25.897Z,1.00
2019-05-10T04:13:55.095Z,0.90
2019-05-10T04:16:24.348Z,1.00
2019-05-10T04:18:53.634Z,1.10
2019-05-10T04:21:22.748Z,1.20
2019-05-10T04:23:51.723Z,1.10
2019-05-10T04:26:21.138Z,1.10
2019-05-10T04:28:50.278Z,1.00
2019-05-10T04:31:19.465Z,1.10
2019-05-10T04:33:48.262Z,0.97
2019-05-10T04:36:17.046Z,1.00
2019-05-10T04:38:46.206Z,1.20
2019-05-10T04:41:14.980Z,1.20
2019-05-10T04:43:43.920Z,1.10
2019-05-10T04:46:12.812Z,1.10
2019-05-10T04:48:41.491Z,1.10
2019-05-10T04:51:10.386Z,1.47
2019-05-10T04:53:39.222Z,1.20
2019-05-10T04:56:08.034Z,1.00
2019-05-10T04:58:37.102Z,1.50
2019-05-10T05:01:06.026Z,1.27
2019-05-10T05:03:34.826Z,1.67
2019-05-10T05:06:03.634Z,1.70
2019-05-10T05:08:32.466Z,1.23
2019-05-10T05:11:01.626Z,1.43
2019-05-10T05:13:30.350Z,1.60
2019-05-10T05:15:59.492Z,1.60
2019-05-10T05:18:28.328Z,1.40
2019-05-10T05:20:57.225Z,2.00
2019-05-10T05:23:26.006Z,1.60
2019-05-10T05:25:54.686Z,1.70
2019-05-10T05:28:24.663Z,1.70
2019-05-10T05:30:54.110Z,2.33
2019-05-10T05:33:23.002Z,1.60
2019-05-10T05:35:52.278Z,1.63
2019-05-10T05:38:21.075Z,1.70
2019-05-10T05:40:49.944Z,1.50
2019-05-10T05:43:18.646Z,1.40
2019-05-10T05:45:47.617Z,1.10
2019-05-10T05:48:21.529Z,1.00
2019-05-10T05:50:47.234Z,1.07
2019-05-10T05:53:16.070Z,1.13
2019-05-10T05:55:45.410Z,0.90
2019-05-10T05:58:25.719Z,1.23
2019-05-10T06:00:46.721Z,1.30
2019-05-10T06:03:19.447Z,1.20
2019-05-10T06:05:46.361Z,1.20
2019-05-10T06:08:22.511Z,1.20
2019-05-10T06:10:56.139Z,1.07
2019-05-10T06:13:16.183Z,1.00
2019-05-10T06:15:45.074Z,1.07
2019-05-10T06:18:14.038Z,1.10
2019-05-10T06:20:44.567Z,1.20
2019-05-10T06:23:13.342Z,1.20
2019-05-10T06:25:42.890Z,1.10
2019-05-10T06:28:25.637Z,1.03
2019-05-10T06:30:42.335Z,1.40
2019-05-10T06:33:13.242Z,1.33
2019-05-10T06:35:41.635Z,0.87
2019-05-10T06:38:10.441Z,1.00
2019-05-10T06:40:46.300Z,1.00
2019-05-10T06:43:13.416Z,1.17
2019-05-10T06:45:39.871Z,1.37
2019-05-10T06:48:08.638Z,1.20
2019-05-10T06:50:37.291Z,1.20
2019-05-10T06:53:10.530Z,1.50
2019-05-10T06:55:36.528Z,1.60
2019-05-10T06:58:05.567Z,1.10
2019-05-10T07:00:38.247Z,0.80
2019-05-10T07:03:04.841Z,0.90
2019-05-10T07:05:33.506Z,1.00
2019-05-10T07:08:14.030Z,0.80
2019-05-10T07:10:33.898Z,1.03
2019-05-10T07:13:04.061Z,1.20
2019-05-10T07:15:35.774Z,1.10
2019-05-10T07:18:03.780Z,1.10
2019-05-10T07:20:32.599Z,1.20
2019-05-10T07:23:06.269Z,1.20
2019-05-10T07:25:32.205Z,1.10
2019-05-10T07:28:00.933Z,1.20
2019-05-10T07:30:31.086Z,1.17
2019-05-10T07:33:01.766Z,1.10
2019-05-10T07:35:30.942Z,1.40
2019-05-10T07:38:01.043Z,1.30
2019-05-10T07:40:29.939Z,1.30
2019-05-10T07:42:58.739Z,1.27
2019-05-10T07:45:27.583Z,1.47
2019-05-10T07:47:56.311Z,1.10
2019-05-10T07:50:25.043Z,1.27
2019-05-10T07:52:53.757Z,1.20
2019-05-10T07:55:27.912Z,1.40
2019-05-10T07:57:53.127Z,1.33
2019-05-10T08:00:25.220Z,1.07
2019-05-10T08:03:02.409Z,0.97
2019-05-10T08:05:23.121Z,0.87
2019-05-10T08:07:51.775Z,1.10
2019-05-10T08:10:21.461Z,0.90
2019-05-10T08:12:50.581Z,1.10
2019-05-10T08:15:19.623Z,0.90
2019-05-10T08:17:50.912Z,1.13
2019-05-10T08:20:33.414Z,0.90
2019-05-10T08:22:49.684Z,0.90
2019-05-10T08:25:18.445Z,0.70
2019-05-10T08:27:50.390Z,0.77
2019-05-10T08:30:28.772Z,1.00
2019-05-10T08:32:52.581Z,0.80
2019-05-10T08:35:21.603Z,0.63
2019-05-10T08:37:50.322Z,0.90
2019-05-10T08:40:19.650Z,1.10
2019-05-10T08:43:02.830Z,1.10
2019-05-10T08:45:19.889Z,1.20
2019-05-10T08:47:52.907Z,0.80
2019-05-10T08:50:34.436Z,0.90
2019-05-10T08:52:49.549Z,0.77
2019-05-10T08:55:18.375Z,0.90
2019-05-10T08:57:49.069Z,0.60
2019-05-10T09:00:17.811Z,0.70
2019-05-10T09:02:46.406Z,0.73
2019-05-10T09:05:15.596Z,0.60
2019-05-10T09:07:45.376Z,0.60
2019-05-10T09:10:14.884Z,0.67
2019-05-10T09:12:50.856Z,0.80
2019-05-10T09:15:14.117Z,0.90
2019-05-10T09:17:43.093Z,0.80
2019-05-10T09:20:20.639Z,0.60
2019-05-10T09:22:42.819Z,0.63
2019-05-10T09:25:12.817Z,0.57
2019-05-10T09:27:43.257Z,0.60
2019-05-10T09:30:14.242Z,0.57
2019-05-10T09:32:43.711Z,0.43
2019-05-10T09:35:13.093Z,0.40
2019-05-10T09:37:42.327Z,0.40
2019-05-10T09:40:13.213Z,0.60
2019-05-10T09:42:43.682Z,0.60
2019-05-10T09:45:13.018Z,0.70
2019-05-10T09:47:43.546Z,0.40
2019-05-10T09:50:12.820Z,0.70
2019-05-10T09:52:42.088Z,0.60
2019-05-10T09:55:14.822Z,0.60
2019-05-10T09:57:42.277Z,0.73
2019-05-10T10:00:11.192Z,0.63
2019-05-10T10:02:40.616Z,0.60
2019-05-10T10:05:10.291Z,0.60
2019-05-10T10:07:39.043Z,0.67
2019-05-10T10:10:12.700Z,0.50
2019-05-10T10:12:38.225Z,0.60
2019-05-10T10:15:09.571Z,0.57
2019-05-10T10:17:42.211Z,0.50
2019-05-10T10:20:08.573Z,0.63
2019-05-10T10:22:38.274Z,0.50
2019-05-10T10:25:07.521Z,0.50
2019-05-10T10:27:39.302Z,0.40
2019-05-10T10:30:12.739Z,0.50
2019-05-10T10:32:37.717Z,0.53
2019-05-10T10:35:07.893Z,0.80
2019-05-10T10:37:37.983Z,0.60
2019-05-10T10:40:08.695Z,0.70
2019-05-10T10:42:38.419Z,0.60
2019-05-10T10:45:07.856Z,0.50
2019-05-10T10:47:38.130Z,0.60
2019-05-10T10:50:09.240Z,0.70
2019-05-10T10:52:38.199Z,0.60
2019-05-10T10:55:11.069Z,0.50
2019-05-10T10:57:37.702Z,0.50
2019-05-10T11:00:07.763Z,0.50
2019-05-10T11:02:37.168Z,0.50
2019-05-10T11:05:06.158Z,0.40
2019-05-10T11:07:38.100Z,0.50
2019-05-10T11:10:15.219Z,0.40
2019-05-10T11:12:36.725Z,0.40
2019-05-10T11:15:06.090Z,0.47
2019-05-10T11:17:35.180Z,0.40
2019-05-10T11:20:04.294Z,0.50
2019-05-10T11:22:32.964Z,0.53
2019-05-10T11:25:09.113Z,0.50
2019-05-10T11:27:32.532Z,0.60
2019-05-10T11:30:01.392Z,0.40
2019-05-10T11:32:31.474Z,0.50
2019-05-10T11:35:00.628Z,0.50
2019-05-10T11:37:32.850Z,0.40
2019-05-10T11:40:01.697Z,0.50
2019-05-10T11:42:31.059Z,0.50
2019-05-10T11:45:00.817Z,0.78
2019-05-10T11:47:31.279Z,0.50
2019-05-10T11:50:06.102Z,0.60
2019-05-10T11:52:34.667Z,0.50
2019-05-10T11:55:01.851Z,0.83
2019-05-10T11:57:32.910Z,0.70
2019-05-10T12:00:01.078Z,0.60
2019-05-10T12:02:41.854Z,0.50
2019-05-10T12:05:10.243Z,0.43
2019-05-10T12:07:35.378Z,0.50
2019-05-10T12:10:07.700Z,0.57
2019-05-10T12:17:34.012Z,0.50
2019-05-10T12:20:03.729Z,2.33
2019-05-10T12:22:38.291Z,1.03
2019-05-10T12:25:23.313Z,0.63
2019-05-10T12:26:06.530Z,0.53
2019-05-10T12:26:16.291Z,0.50
2019-05-10T12:27:44.353Z,0.70
2019-05-10T12:30:04.881Z,0.57
2019-05-10T12:32:37.100Z,0.63
2019-05-10T12:35:04.730Z,0.40
2019-05-10T12:37:33.828Z,0.57
2019-05-10T12:40:09.805Z,0.40
2019-05-10T12:42:33.989Z,0.60
2019-05-10T12:45:02.904Z,0.50
2019-05-10T12:47:37.497Z,0.57
2019-05-10T12:50:06.462Z,0.50
2019-05-10T12:52:35.073Z,0.50
2019-05-10T12:55:04.959Z,0.40
2019-05-10T12:57:34.356Z,0.50
2019-05-10T13:00:06.650Z,0.50
2019-05-10T13:02:34.350Z,0.63
2019-05-10T13:05:03.796Z,0.63
2019-05-10T13:07:36.742Z,0.50
2019-05-10T13:10:07.686Z,0.65
2019-05-10T13:12:36.770Z,0.43
2019-05-10T13:15:05.345Z,0.60
2019-05-10T13:17:34.378Z,0.60
2019-05-10T13:20:03.297Z,0.53
2019-05-10T13:22:37.655Z,0.50
2019-05-10T13:25:02.604Z,0.60
2019-05-10T13:27:31.286Z,0.67
2019-05-10T13:30:00.213Z,0.73
2019-05-10T13:32:29.066Z,0.60
2019-05-10T13:34:58.418Z,0.70
2019-05-10T13:37:27.229Z,0.70
2019-05-10T13:39:58.128Z,0.70
2019-05-10T13:42:27.087Z,0.80
2019-05-10T13:44:56.885Z,0.60
2019-05-10T13:47:25.792Z,0.63
2019-05-10T13:49:54.801Z,0.60
2019-05-10T13:52:29.778Z,0.70
2019-05-10T13:54:55.939Z,0.80
2019-05-10T13:57:24.603Z,0.60
2019-05-10T13:59:55.118Z,0.60
2019-05-10T14:02:32.410Z,0.50
2019-05-10T14:04:54.171Z,0.60
2019-05-10T14:07:22.963Z,0.70
2019-05-10T14:09:51.739Z,0.53
2019-05-10T14:12:23.068Z,0.60
2019-05-10T14:14:55.401Z,0.60
2019-05-10T14:17:21.809Z,0.70
2019-05-10T14:19:50.673Z,0.80
2019-05-10T14:22:19.506Z,0.60
2019-05-10T14:24:53.500Z,0.70
2019-05-10T14:27:18.799Z,0.60
2019-05-10T14:29:47.587Z,0.60
2019-05-10T14:32:17.740Z,0.73
2019-05-10T14:34:46.518Z,1.23
2019-05-10T14:37:19.825Z,0.57
2019-05-10T14:39:45.585Z,0.70
2019-05-10T14:42:14.462Z,0.70
2019-05-10T14:44:43.547Z,0.60
2019-05-10T14:47:12.151Z,0.60
2019-05-10T14:49:46.441Z,0.70
2019-05-10T14:52:11.146Z,0.63
2019-05-10T14:54:43.814Z,0.70
2019-05-10T14:57:10.403Z,0.50
2019-05-10T14:59:39.062Z,0.63
2019-05-10T15:02:08.059Z,0.50
2019-05-10T15:04:46.583Z,0.60
2019-05-10T15:07:08.765Z,0.60
2019-05-10T15:09:37.959Z,0.60
2019-05-10T15:12:10.095Z,0.53
2019-05-10T15:14:37.157Z,0.53
2019-05-10T15:17:06.130Z,0.50
2019-05-10T15:19:34.965Z,0.60
2019-05-10T15:22:03.955Z,0.60
2019-05-10T15:24:32.799Z,0.60
2019-05-10T15:27:01.674Z,0.60
2019-05-10T15:29:30.565Z,0.70
2019-05-10T15:31:59.506Z,2.20
2019-05-10T15:34:28.347Z,0.60
2019-05-10T15:37:02.458Z,0.70
2019-05-10T15:39:29.084Z,0.77
2019-05-10T15:42:00.573Z,0.90
2019-05-10T15:44:31.386Z,1.10
2019-05-10T15:46:59.887Z,1.10
2019-05-10T15:49:28.983Z,2.47
2019-05-10T15:52:16.378Z,0.70
2019-05-10T15:54:28.207Z,0.80
2019-05-10T15:56:56.841Z,0.60
2019-05-10T15:59:25.836Z,0.60
2019-05-10T16:01:54.697Z,0.57
2019-05-10T16:04:23.416Z,0.80
2019-05-10T16:06:52.521Z,0.88
2019-05-10T16:09:21.320Z,0.90
2019-05-10T16:11:50.123Z,0.80
2019-05-10T16:14:19.045Z,0.67
2019-05-10T16:16:47.842Z,0.60
2019-05-10T16:19:18.497Z,0.50
2019-05-10T16:21:52.046Z,0.68
2019-05-10T16:24:25.523Z,0.65
2019-05-10T16:26:48.623Z,1.10
2019-05-10T16:29:17.473Z,0.70
2019-05-10T16:31:46.290Z,0.90
2019-05-10T16:34:15.120Z,0.80
2019-05-10T16:36:44.202Z,0.60
2019-05-10T16:39:13.195Z,0.82
2019-05-10T16:41:42.104Z,0.82
2019-05-10T16:44:10.944Z,0.70
2019-05-10T16:46:39.760Z,0.80
2019-05-10T16:49:10.057Z,0.70
2019-05-10T16:51:42.364Z,0.60
2019-05-10T16:54:13.398Z,0.80
2019-05-10T16:56:40.282Z,0.60
2019-05-10T16:59:08.994Z,0.77
2019-05-10T17:01:37.678Z,0.90
2019-05-10T17:04:06.660Z,0.70
2019-05-10T17:06:40.284Z,0.80
2019-05-10T17:09:09.348Z,0.90
2019-05-10T17:11:41.444Z,0.70
2019-05-10T17:14:12.687Z,0.95
2019-05-10T17:16:39.008Z,0.83
2019-05-10T17:19:07.742Z,10.00
2019-05-10T17:21:37.174Z,2.57
2019-05-10T17:24:05.877Z,1.20
2019-05-10T17:26:34.658Z,0.90
2019-05-10T17:29:07.324Z,0.70
2019-05-10T17:31:34.317Z,0.60
2019-05-10T17:34:03.215Z,0.70
2019-05-10T17:36:32.287Z,0.70
2019-05-10T17:39:01.092Z,1.00
2019-05-10T17:41:29.826Z,0.80
2019-05-10T17:43:58.678Z,0.70
2019-05-10T17:46:27.376Z,0.90
2019-05-10T17:48:56.250Z,1.00
2019-05-10T17:51:24.942Z,0.90
2019-05-10T17:54:01.339Z,0.77
2019-05-10T17:56:24.328Z,0.70
2019-05-10T17:58:53.372Z,0.90
2019-05-10T18:01:22.052Z,0.90
2019-05-10T18:03:50.890Z,1.00
2019-05-10T18:06:24.057Z,0.80
2019-05-10T18:08:50.363Z,0.90
2019-05-10T18:11:19.111Z,0.80
2019-05-10T18:13:47.786Z,0.70
2019-05-10T18:16:16.437Z,0.70
2019-05-10T18:18:46.896Z,0.90
2019-05-10T18:21:21.027Z,0.97
2019-05-10T18:23:46.217Z,0.77
2019-05-10T18:26:15.023Z,0.87
2019-05-10T18:28:43.890Z,1.30
2019-05-10T18:31:12.632Z,1.20
2019-05-10T18:33:44.830Z,1.70
2019-05-10T18:36:12.002Z,1.30
2019-05-10T18:38:40.845Z,1.30
2019-05-10T18:41:10.217Z,1.50
2019-05-10T18:43:40.601Z,1.40
2019-05-10T18:46:10.695Z,1.50
2019-05-10T18:48:39.720Z,1.60
2019-05-10T18:51:08.593Z,1.90
2019-05-10T18:53:37.448Z,1.67
2019-05-10T18:56:06.458Z,1.70
2019-05-10T18:58:35.603Z,1.77
2019-05-10T19:01:04.483Z,1.50
2019-05-10T19:03:34.206Z,1.50
2019-05-10T19:06:10.767Z,1.47
2019-05-10T19:08:34.690Z,1.80
2019-05-10T19:11:04.205Z,1.90
2019-05-10T19:13:40.151Z,1.83
2019-05-10T19:16:04.404Z,1.67
2019-05-10T19:18:33.203Z,1.67
2019-05-10T19:21:02.031Z,2.10
2019-05-10T19:23:30.953Z,1.57
2019-05-10T19:25:59.896Z,1.60
2019-05-10T19:28:28.679Z,1.70
2019-05-10T19:30:58.663Z,1.83
2019-05-10T19:33:29.786Z,1.90
2019-05-10T19:35:58.425Z,1.80
2019-05-10T19:38:27.133Z,1.93
2019-05-10T19:40:55.949Z,1.73
2019-05-10T19:43:24.701Z,2.07
2019-05-10T19:45:57.268Z,2.27
2019-05-10T19:48:29.053Z,2.60
2019-05-10T19:50:54.323Z,1.83
2019-05-10T19:53:23.059Z,1.80
2019-05-10T19:55:57.280Z,1.80
2019-05-10T19:58:26.498Z,1.93
2019-05-10T20:00:53.063Z,2.00
2019-05-10T20:03:21.916Z,2.00
2019-05-10T20:05:50.743Z,1.73
2019-05-10T20:08:19.732Z,2.20
2019-05-10T20:10:48.569Z,1.90
2019-05-10T20:13:17.457Z,1.77
2019-05-10T20:15:46.199Z,1.90
2019-05-10T20:18:14.967Z,1.90
2019-05-10T20:20:43.821Z,1.77
2019-05-10T20:23:12.661Z,1.90
2019-05-10T20:25:41.489Z,2.23
2019-05-10T20:28:10.295Z,2.10
2019-05-10T20:30:39.198Z,2.40
2019-05-10T20:33:08.129Z,2.53
2019-05-10T20:35:37.113Z,2.13
2019-05-10T20:38:06.310Z,2.20
2019-05-10T20:40:37.049Z,2.13
2019-05-10T20:43:05.491Z,2.70
2019-05-10T20:45:34.343Z,2.53
2019-05-10T20:48:03.502Z,2.27
2019-05-10T20:50:32.605Z,2.20
2019-05-10T20:53:01.303Z,2.40
2019-05-10T20:55:30.143Z,2.40
2019-05-10T20:57:59.021Z,2.60
2019-05-10T21:00:27.687Z,3.10
2019-05-10T21:02:56.595Z,2.90
2019-05-10T21:05:25.592Z,2.90
2019-05-10T21:07:54.483Z,3.50
2019-05-10T21:10:23.319Z,3.60
2019-05-10T21:12:52.242Z,3.87
2019-05-10T21:15:21.046Z,3.50
2019-05-10T21:17:49.781Z,2.97
2019-05-10T21:20:18.558Z,2.87
2019-05-10T21:22:47.315Z,2.83
2019-05-10T21:25:16.405Z,2.87
2019-05-10T21:27:45.322Z,3.30
2019-05-10T21:30:14.648Z,3.13
2019-05-10T21:32:43.493Z,3.13
2019-05-10T21:35:12.478Z,3.07
2019-05-10T21:37:41.324Z,3.00
2019-05-10T21:40:10.140Z,3.17
2019-05-10T21:42:38.809Z,3.30
2019-05-10T21:45:07.735Z,2.97
2019-05-10T21:47:50.575Z,2.83
2019-05-10T21:50:07.321Z,3.00
2019-05-10T21:52:36.163Z,2.80
2019-05-10T21:55:04.999Z,3.57
2019-05-10T21:57:33.778Z,3.00
2019-05-10T22:00:02.462Z,3.27
2019-05-10T22:02:33.076Z,2.23
2019-05-10T22:05:02.641Z,2.33
2019-05-10T22:07:31.752Z,2.67
2019-05-10T22:10:00.452Z,2.40
2019-05-10T22:12:29.315Z,2.73
2019-05-10T22:14:58.311Z,2.27
2019-05-10T22:17:27.408Z,2.60
2019-05-10T22:19:56.091Z,2.80
2019-05-10T22:22:24.960Z,2.60
2019-05-10T22:24:53.728Z,2.57
2019-05-10T22:27:22.452Z,3.03
2019-05-10T22:29:51.296Z,2.97
2019-05-10T22:32:20.043Z,2.70
2019-05-10T22:34:48.796Z,3.20
2019-05-10T22:37:17.599Z,3.20
2019-05-10T22:39:46.332Z,3.43
2019-05-10T22:42:15.231Z,3.10
2019-05-10T22:44:43.944Z,3.10
2019-05-10T22:47:12.652Z,3.50
2019-05-10T22:49:41.530Z,3.30
2019-05-10T22:52:10.245Z,3.53
2019-05-10T22:54:38.965Z,3.00
2019-05-10T22:57:07.680Z,2.63
2019-05-10T22:59:36.330Z,3.00
2019-05-10T23:02:05.070Z,2.70
2019-05-10T23:04:33.952Z,3.83
2019-05-10T23:07:03.086Z,3.03
2019-05-10T23:09:31.776Z,3.10
2019-05-10T23:12:00.451Z,3.00
2019-05-10T23:14:29.056Z,3.00
2019-05-10T23:16:57.637Z,3.07
2019-05-10T23:19:26.293Z,2.93
2019-05-10T23:21:54.964Z,2.93
2019-05-10T23:24:36.561Z,3.70
2019-05-10T23:27:05.683Z,3.40
2019-05-10T23:29:34.382Z,3.10
2019-05-10T23:32:03.089Z,2.50
2019-05-10T23:34:32.178Z,2.90
2019-05-10T23:37:00.966Z,2.83
2019-05-10T23:39:40.177Z,2.57
2019-05-10T23:42:00.065Z,2.57
2019-05-10T23:44:28.691Z,2.60
2019-05-10T23:46:57.446Z,2.30
2019-05-10T23:49:26.326Z,2.60
2019-05-10T23:51:54.961Z,2.23
2019-05-10T23:54:23.641Z,2.33
2019-05-10T23:56:52.335Z,2.43
2019-05-10T23:59:21.123Z,2.13
